Accueil
METAR-TAF:

METAR-TAF

Aéroports :

Kunming, Chine

Aéroport international de Kunming Changshui

latitude: 25-01N, longitude: 102-41E, altitude: 1892 m

Observation

Le bulletin a été fait il y a 13 minutes, à 16:00 UTC
Vent 6 kt de sud-ouest
Température 8°C
Humidité 61%
Pression 1023 hPa
Visibilité 10 km ou plus
pas de nuages en-dessous de 1500 mètres et pas de cumulonimbus.

METAR: ZPPP 241600Z 22003MPS CAVOK 08/01 Q1023 NOSIG

Heure: 00:13 (16:13 UTC)

Prévision

Le bulletin a été fait il y a 9 heures et 5 minutes, à 07:08 UTC
Prévision valable du 24 à 12 UTC au 25 à 12 UTC
Vent 16 kt de sud-ouest
Visibilité 10 km ou plus
Nuages épars à une hauteur de 3000 ft
Evoluant progressivement
du 24 à 17 UTC au 24 à 18 UTC
Vent 8 kt de nord-est
Evoluant progressivement
du 25 à 03 UTC au 25 à 04 UTC
Vent 14 kt de sud-ouest

TAF: ZPPP 240708Z 2412/2512 22008MPS 9999 SCT030 TX20/2508Z TN06/2423Z BECMG 2417/2418 04004MPS BECMG 2503/2504 22007MPS

Observations et prévisions météorologiques de plus de 4000 aéroports (messages METAR et TAF).

Les stations disponibles sont représentées par des disques jaunes et rouges sur la carte.

Passer la souris dessus pour voir le nom de la station.

Cliquer dessus pour voir les observations et prévisions météorologiques.

Pour changer de carte: cliquez sur les boutons verts avec une croix noire pour zoomer, sur le bouton vert avec un tiret pour effectuer un zoom arrière, ou sur les flèches vertes pour les cartes adjacentes.


METAR-TAF: